sensor_id;sensor_type;location;lat;lon;timestamp;P1;durP1;ratioP1;P2;durP2;ratioP2
12699;SDS011;6414;49.570;6.060;2024-03-23T00:55:47;7.90;;;3.60;;
12699;SDS011;6414;49.570;6.060;2024-03-23T00:58:33;3.93;;;1.80;;
12699;SDS011;6414;49.570;6.060;2024-03-23T01:01:19;5.33;;;1.80;;
12699;SDS011;6414;49.570;6.060;2024-03-23T01:04:05;2.90;;;1.70;;
12699;SDS011;6414;49.570;6.060;2024-03-23T01:06:51;6.10;;;1.87;;
12699;SDS011;6414;49.570;6.060;2024-03-23T01:09:37;2.47;;;1.40;;
12699;SDS011;6414;49.570;6.060;2024-03-23T01:12:23;2.20;;;2.00;;
12699;SDS011;6414;49.570;6.060;2024-03-23T01:15:09;3.80;;;1.77;;
12699;SDS011;6414;49.570;6.060;2024-03-23T01:17:55;1.77;;;1.47;;
12699;SDS011;6414;49.570;6.060;2024-03-23T01:20:41;4.50;;;2.23;;
12699;SDS011;6414;49.570;6.060;2024-03-23T01:23:27;4.07;;;1.90;;
12699;SDS011;6414;49.570;6.060;2024-03-23T01:26:13;3.00;;;1.50;;
12699;SDS011;6414;49.570;6.060;2024-03-23T01:28:59;0.37;;;0.37;;
12699;SDS011;6414;49.570;6.060;2024-03-23T01:31:45;0.93;;;0.50;;
12699;SDS011;6414;49.570;6.060;2024-03-23T01:34:31;0.47;;;0.47;;
12699;SDS011;6414;49.570;6.060;2024-03-23T01:37:18;0.10;;;0.10;;
12699;SDS011;6414;49.570;6.060;2024-03-23T01:40:05;0.10;;;0.10;;
12699;SDS011;6414;49.570;6.060;2024-03-23T01:42:56;0.07;;;0.07;;
12699;SDS011;6414;49.570;6.060;2024-03-23T01:45:41;0.40;;;0.37;;
12699;SDS011;6414;49.570;6.060;2024-03-23T01:48:28;0.67;;;0.40;;
12699;SDS011;6414;49.570;6.060;2024-03-23T01:51:14;0.10;;;0.10;;
12699;SDS011;6414;49.570;6.060;2024-03-23T01:54:04;0.20;;;0.20;;
12699;SDS011;6414;49.570;6.060;2024-03-23T01:56:49;0.10;;;0.10;;
12699;SDS011;6414;49.570;6.060;2024-03-23T01:59:35;0.00;;;0.00;;
12699;SDS011;6414;49.570;6.060;2024-03-23T02:02:21;0.77;;;0.30;;
12699;SDS011;6414;49.570;6.060;2024-03-23T02:05:07;0.60;;;0.27;;
12699;SDS011;6414;49.570;6.060;2024-03-23T02:07:53;0.10;;;0.10;;
12699;SDS011;6414;49.570;6.060;2024-03-23T02:10:39;0.20;;;0.20;;
12699;SDS011;6414;49.570;6.060;2024-03-23T02:13:25;0.20;;;0.20;;
12699;SDS011;6414;49.570;6.060;2024-03-23T02:16:11;0.10;;;0.10;;
12699;SDS011;6414;49.570;6.060;2024-03-23T02:18:57;0.00;;;0.00;;
12699;SDS011;6414;49.570;6.060;2024-03-23T02:21:44;0.00;;;0.00;;
12699;SDS011;6414;49.570;6.060;2024-03-23T02:24:30;0.53;;;0.20;;
12699;SDS011;6414;49.570;6.060;2024-03-23T02:27:16;0.00;;;0.00;;
12699;SDS011;6414;49.570;6.060;2024-03-23T02:30:02;0.00;;;0.00;;
12699;SDS011;6414;49.570;6.060;2024-03-23T02:32:48;0.20;;;0.10;;
12699;SDS011;6414;49.570;6.060;2024-03-23T02:35:34;0.00;;;0.00;;
12699;SDS011;6414;49.570;6.060;2024-03-23T02:38:20;0.00;;;0.00;;
12699;SDS011;6414;49.570;6.060;2024-03-23T02:41:06;0.00;;;0.00;;
12699;SDS011;6414;49.570;6.060;2024-03-23T02:43:52;0.10;;;0.10;;
12699;SDS011;6414;49.570;6.060;2024-03-23T02:46:38;0.00;;;0.00;;
12699;SDS011;6414;49.570;6.060;2024-03-23T02:49:24;0.00;;;0.00;;
12699;SDS011;6414;49.570;6.060;2024-03-23T02:52:11;0.00;;;0.00;;
12699;SDS011;6414;49.570;6.060;2024-03-23T02:54:56;0.00;;;0.00;;
12699;SDS011;6414;49.570;6.060;2024-03-23T02:57:43;0.10;;;0.10;;
12699;SDS011;6414;49.570;6.060;2024-03-23T03:00:29;0.00;;;0.00;;
12699;SDS011;6414;49.570;6.060;2024-03-23T03:03:16;0.40;;;0.35;;
12699;SDS011;6414;49.570;6.060;2024-03-23T03:06:02;0.60;;;0.37;;
12699;SDS011;6414;49.570;6.060;2024-03-23T03:08:49;1.50;;;0.43;;
12699;SDS011;6414;49.570;6.060;2024-03-23T03:14:21;0.00;;;0.00;;
12699;SDS011;6414;49.570;6.060;2024-03-23T03:17:07;0.00;;;0.00;;
12699;SDS011;6414;49.570;6.060;2024-03-23T03:19:52;0.00;;;0.00;;
12699;SDS011;6414;49.570;6.060;2024-03-23T03:22:39;0.40;;;0.40;;
12699;SDS011;6414;49.570;6.060;2024-03-23T03:25:25;0.17;;;0.17;;
12699;SDS011;6414;49.570;6.060;2024-03-23T03:28:12;0.50;;;0.50;;
12699;SDS011;6414;49.570;6.060;2024-03-23T03:30:58;0.80;;;0.70;;
12699;SDS011;6414;49.570;6.060;2024-03-23T03:33:44;0.40;;;0.40;;
12699;SDS011;6414;49.570;6.060;2024-03-23T03:36:30;0.37;;;0.37;;
12699;SDS011;6414;49.570;6.060;2024-03-23T03:39:18;1.50;;;0.20;;
12699;SDS011;6414;49.570;6.060;2024-03-23T03:42:03;0.07;;;0.00;;
12699;SDS011;6414;49.570;6.060;2024-03-23T03:44:50;1.10;;;0.33;;
12699;SDS011;6414;49.570;6.060;2024-03-23T03:47:37;0.00;;;0.00;;
12699;SDS011;6414;49.570;6.060;2024-03-23T03:50:22;0.00;;;0.00;;
12699;SDS011;6414;49.570;6.060;2024-03-23T03:53:08;0.10;;;0.00;;
12699;SDS011;6414;49.570;6.060;2024-03-23T03:55:54;0.00;;;0.00;;
12699;SDS011;6414;49.570;6.060;2024-03-23T03:58:42;0.53;;;0.20;;
12699;SDS011;6414;49.570;6.060;2024-03-23T04:01:27;0.30;;;0.20;;
12699;SDS011;6414;49.570;6.060;2024-03-23T04:04:14;0.57;;;0.33;;
12699;SDS011;6414;49.570;6.060;2024-03-23T04:07:01;1.73;;;0.40;;
12699;SDS011;6414;49.570;6.060;2024-03-23T04:09:46;0.47;;;0.20;;
12699;SDS011;6414;49.570;6.060;2024-03-23T04:12:32;3.10;;;0.70;;
12699;SDS011;6414;49.570;6.060;2024-03-23T04:15:18;1.23;;;0.50;;
12699;SDS011;6414;49.570;6.060;2024-03-23T04:18:05;0.83;;;0.40;;
12699;SDS011;6414;49.570;6.060;2024-03-23T04:20:51;0.07;;;0.07;;
12699;SDS011;6414;49.570;6.060;2024-03-23T04:23:37;0.53;;;0.27;;
12699;SDS011;6414;49.570;6.060;2024-03-23T04:26:23;0.00;;;0.00;;
12699;SDS011;6414;49.570;6.060;2024-03-23T04:29:09;2.67;;;0.60;;
12699;SDS011;6414;49.570;6.060;2024-03-23T04:31:55;0.20;;;0.20;;
12699;SDS011;6414;49.570;6.060;2024-03-23T04:34:42;0.20;;;0.20;;
12699;SDS011;6414;49.570;6.060;2024-03-23T04:37:28;0.40;;;0.20;;
12699;SDS011;6414;49.570;6.060;2024-03-23T04:40:14;2.07;;;0.33;;
12699;SDS011;6414;49.570;6.060;2024-03-23T04:43:01;0.33;;;0.33;;
12699;SDS011;6414;49.570;6.060;2024-03-23T04:45:47;3.35;;;1.00;;
12699;SDS011;6414;49.570;6.060;2024-03-23T04:48:33;0.77;;;0.70;;
12699;SDS011;6414;49.570;6.060;2024-03-23T04:51:22;1.03;;;0.43;;
12699;SDS011;6414;49.570;6.060;2024-03-23T04:54:08;1.23;;;0.73;;
12699;SDS011;6414;49.570;6.060;2024-03-23T04:56:55;0.73;;;0.60;;
12699;SDS011;6414;49.570;6.060;2024-03-23T04:59:41;0.30;;;0.30;;
12699;SDS011;6414;49.570;6.060;2024-03-23T05:02:27;1.83;;;1.57;;
12699;SDS011;6414;49.570;6.060;2024-03-23T05:05:14;1.80;;;0.77;;
12699;SDS011;6414;49.570;6.060;2024-03-23T05:08:00;9.00;;;1.65;;
12699;SDS011;6414;49.570;6.060;2024-03-23T05:10:47;3.67;;;1.70;;
12699;SDS011;6414;49.570;6.060;2024-03-23T05:13:33;5.10;;;1.40;;
12699;SDS011;6414;49.570;6.060;2024-03-23T05:16:19;1.03;;;0.57;;
12699;SDS011;6414;49.570;6.060;2024-03-23T05:19:02;5.73;;;1.23;;
12699;SDS011;6414;49.570;6.060;2024-03-23T05:21:50;0.97;;;0.67;;
12699;SDS011;6414;49.570;6.060;2024-03-23T05:24:37;0.50;;;0.37;;
12699;SDS011;6414;49.570;6.060;2024-03-23T05:27:23;4.20;;;2.03;;
12699;SDS011;6414;49.570;6.060;2024-03-23T05:30:08;2.03;;;0.70;;
12699;SDS011;6414;49.570;6.060;2024-03-23T05:32:54;6.45;;;2.15;;
12699;SDS011;6414;49.570;6.060;2024-03-23T05:35:40;2.53;;;0.80;;
12699;SDS011;6414;49.570;6.060;2024-03-23T05:41:20;0.50;;;0.50;;
12699;SDS011;6414;49.570;6.060;2024-03-23T05:44:06;0.80;;;0.70;;
12699;SDS011;6414;49.570;6.060;2024-03-23T05:46:52;0.70;;;0.57;;
12699;SDS011;6414;49.570;6.060;2024-03-23T05:49:37;1.17;;;0.60;;
12699;SDS011;6414;49.570;6.060;2024-03-23T05:52:23;0.93;;;0.87;;
12699;SDS011;6414;49.570;6.060;2024-03-23T05:55:09;1.93;;;0.87;;
12699;SDS011;6414;49.570;6.060;2024-03-23T05:57:59;3.40;;;1.77;;
12699;SDS011;6414;49.570;6.060;2024-03-23T06:01:07;6.63;;;2.40;;
12699;SDS011;6414;49.570;6.060;2024-03-23T06:03:53;1.17;;;0.60;;
12699;SDS011;6414;49.570;6.060;2024-03-23T06:09:58;6.43;;;1.83;;
12699;SDS011;6414;49.570;6.060;2024-03-23T06:12:46;3.83;;;2.40;;
12699;SDS011;6414;49.570;6.060;2024-03-23T06:15:31;5.12;;;2.50;;
12699;SDS011;6414;49.570;6.060;2024-03-23T06:18:17;3.37;;;1.73;;
12699;SDS011;6414;49.570;6.060;2024-03-23T06:21:03;1.63;;;1.17;;
12699;SDS011;6414;49.570;6.060;2024-03-23T06:23:53;7.10;;;1.60;;
12699;SDS011;6414;49.570;6.060;2024-03-23T06:26:40;5.00;;;1.60;;
12699;SDS011;6414;49.570;6.060;2024-03-23T06:29:27;1.70;;;0.90;;
12699;SDS011;6414;49.570;6.060;2024-03-23T06:32:14;3.50;;;1.40;;
12699;SDS011;6414;49.570;6.060;2024-03-23T06:35:00;1.00;;;0.77;;
12699;SDS011;6414;49.570;6.060;2024-03-23T06:37:47;1.10;;;0.60;;
12699;SDS011;6414;49.570;6.060;2024-03-23T06:40:35;1.17;;;1.00;;
12699;SDS011;6414;49.570;6.060;2024-03-23T06:43:19;2.07;;;0.70;;
12699;SDS011;6414;49.570;6.060;2024-03-23T06:46:05;6.03;;;2.17;;
12699;SDS011;6414;49.570;6.060;2024-03-23T06:48:51;0.87;;;0.57;;
12699;SDS011;6414;49.570;6.060;2024-03-23T06:51:38;1.13;;;0.63;;
12699;SDS011;6414;49.570;6.060;2024-03-23T06:54:24;1.17;;;0.87;;
12699;SDS011;6414;49.570;6.060;2024-03-23T06:57:11;4.62;;;2.00;;
12699;SDS011;6414;49.570;6.060;2024-03-23T07:00:00;2.87;;;1.73;;
12699;SDS011;6414;49.570;6.060;2024-03-23T07:02:46;0.67;;;0.67;;
12699;SDS011;6414;49.570;6.060;2024-03-23T07:05:33;1.17;;;1.07;;
12699;SDS011;6414;49.570;6.060;2024-03-23T07:08:18;0.30;;;0.30;;
12699;SDS011;6414;49.570;6.060;2024-03-23T07:11:05;0.90;;;0.83;;
12699;SDS011;6414;49.570;6.060;2024-03-23T07:13:52;2.80;;;0.70;;
12699;SDS011;6414;49.570;6.060;2024-03-23T07:16:38;0.60;;;0.60;;
12699;SDS011;6414;49.570;6.060;2024-03-23T07:19:24;3.60;;;1.30;;
12699;SDS011;6414;49.570;6.060;2024-03-23T07:22:10;1.77;;;0.87;;
12699;SDS011;6414;49.570;6.060;2024-03-23T07:24:56;2.23;;;1.37;;
12699;SDS011;6414;49.570;6.060;2024-03-23T07:27:42;0.87;;;0.60;;
12699;SDS011;6414;49.570;6.060;2024-03-23T07:30:30;5.35;;;2.15;;
12699;SDS011;6414;49.570;6.060;2024-03-23T07:33:17;4.83;;;1.07;;
12699;SDS011;6414;49.570;6.060;2024-03-23T07:36:04;7.60;;;2.55;;
12699;SDS011;6414;49.570;6.060;2024-03-23T07:38:51;0.90;;;0.90;;
12699;SDS011;6414;49.570;6.060;2024-03-23T07:41:38;0.50;;;0.50;;
12699;SDS011;6414;49.570;6.060;2024-03-23T07:44:24;1.27;;;1.17;;
12699;SDS011;6414;49.570;6.060;2024-03-23T07:47:11;0.90;;;0.80;;
12699;SDS011;6414;49.570;6.060;2024-03-23T07:49:58;1.13;;;1.03;;
12699;SDS011;6414;49.570;6.060;2024-03-23T07:52:45;1.10;;;0.60;;
12699;SDS011;6414;49.570;6.060;2024-03-23T07:55:31;0.97;;;0.57;;
12699;SDS011;6414;49.570;6.060;2024-03-23T07:58:18;0.57;;;0.57;;
12699;SDS011;6414;49.570;6.060;2024-03-23T08:01:04;0.83;;;0.40;;
12699;SDS011;6414;49.570;6.060;2024-03-23T08:03:57;1.30;;;0.70;;
12699;SDS011;6414;49.570;6.060;2024-03-23T08:06:43;1.53;;;1.13;;
12699;SDS011;6414;49.570;6.060;2024-03-23T08:09:29;0.90;;;0.70;;
12699;SDS011;6414;49.570;6.060;2024-03-23T08:12:15;3.25;;;2.10;;
12699;SDS011;6414;49.570;6.060;2024-03-23T08:15:01;5.37;;;1.57;;
12699;SDS011;6414;49.570;6.060;2024-03-23T08:17:47;1.50;;;1.03;;
12699;SDS011;6414;49.570;6.060;2024-03-23T08:20:33;1.00;;;0.90;;
12699;SDS011;6414;49.570;6.060;2024-03-23T08:23:19;4.00;;;1.10;;
12699;SDS011;6414;49.570;6.060;2024-03-23T08:26:12;5.10;;;0.93;;
12699;SDS011;6414;49.570;6.060;2024-03-23T08:28:59;2.95;;;1.67;;
12699;SDS011;6414;49.570;6.060;2024-03-23T08:31:44;3.77;;;1.13;;
12699;SDS011;6414;49.570;6.060;2024-03-23T08:34:30;0.47;;;0.47;;
12699;SDS011;6414;49.570;6.060;2024-03-23T08:37:16;1.03;;;0.93;;
12699;SDS011;6414;49.570;6.060;2024-03-23T08:40:02;3.17;;;1.47;;
12699;SDS011;6414;49.570;6.060;2024-03-23T08:42:48;2.20;;;0.93;;
12699;SDS011;6414;49.570;6.060;2024-03-23T08:45:34;6.28;;;1.85;;
12699;SDS011;6414;49.570;6.060;2024-03-23T08:48:20;3.23;;;1.40;;
12699;SDS011;6414;49.570;6.060;2024-03-23T08:51:07;9.97;;;1.37;;
12699;SDS011;6414;49.570;6.060;2024-03-23T08:53:53;1.73;;;1.20;;
12699;SDS011;6414;49.570;6.060;2024-03-23T08:56:39;9.43;;;1.90;;
12699;SDS011;6414;49.570;6.060;2024-03-23T08:59:25;6.20;;;2.50;;
12699;SDS011;6414;49.570;6.060;2024-03-23T09:02:14;1.13;;;0.90;;
12699;SDS011;6414;49.570;6.060;2024-03-23T09:04:59;1.47;;;1.33;;
12699;SDS011;6414;49.570;6.060;2024-03-23T09:07:46;5.65;;;2.15;;
12699;SDS011;6414;49.570;6.060;2024-03-23T09:10:37;3.53;;;2.03;;
12699;SDS011;6414;49.570;6.060;2024-03-23T09:13:18;1.87;;;0.80;;
12699;SDS011;6414;49.570;6.060;2024-03-23T09:16:06;7.40;;;1.53;;
12699;SDS011;6414;49.570;6.060;2024-03-23T09:18:53;7.53;;;1.13;;
12699;SDS011;6414;49.570;6.060;2024-03-23T09:21:40;0.50;;;0.50;;
12699;SDS011;6414;49.570;6.060;2024-03-23T09:24:26;3.27;;;1.90;;
12699;SDS011;6414;49.570;6.060;2024-03-23T09:27:12;1.43;;;1.33;;
12699;SDS011;6414;49.570;6.060;2024-03-23T09:29:58;1.67;;;1.33;;
12699;SDS011;6414;49.570;6.060;2024-03-23T09:32:44;0.90;;;0.47;;
12699;SDS011;6414;49.570;6.060;2024-03-23T09:35:30;3.43;;;1.17;;
12699;SDS011;6414;49.570;6.060;2024-03-23T09:38:16;0.83;;;0.60;;
12699;SDS011;6414;49.570;6.060;2024-03-23T09:41:06;1.07;;;0.90;;
12699;SDS011;6414;49.570;6.060;2024-03-23T09:43:48;2.67;;;1.90;;
12699;SDS011;6414;49.570;6.060;2024-03-23T09:46:35;1.93;;;1.37;;
12699;SDS011;6414;49.570;6.060;2024-03-23T09:49:20;8.60;;;0.97;;
12699;SDS011;6414;49.570;6.060;2024-03-23T09:52:07;2.97;;;1.37;;
12699;SDS011;6414;49.570;6.060;2024-03-23T09:54:55;3.53;;;0.93;;
12699;SDS011;6414;49.570;6.060;2024-03-23T09:57:41;0.40;;;0.40;;
12699;SDS011;6414;49.570;6.060;2024-03-23T10:00:27;1.00;;;0.47;;
12699;SDS011;6414;49.570;6.060;2024-03-23T10:03:13;0.73;;;0.70;;
12699;SDS011;6414;49.570;6.060;2024-03-23T10:06:00;0.53;;;0.10;;
12699;SDS011;6414;49.570;6.060;2024-03-23T10:08:46;0.65;;;0.45;;
12699;SDS011;6414;49.570;6.060;2024-03-23T10:11:32;0.00;;;0.00;;
12699;SDS011;6414;49.570;6.060;2024-03-23T10:14:40;1.02;;;0.30;;
12699;SDS011;6414;49.570;6.060;2024-03-23T10:17:20;0.00;;;0.00;;
12699;SDS011;6414;49.570;6.060;2024-03-23T10:20:09;0.73;;;0.40;;
12699;SDS011;6414;49.570;6.060;2024-03-23T10:22:53;0.00;;;0.00;;
12699;SDS011;6414;49.570;6.060;2024-03-23T10:25:39;0.00;;;0.00;;
12699;SDS011;6414;49.570;6.060;2024-03-23T10:28:26;0.00;;;0.00;;
12699;SDS011;6414;49.570;6.060;2024-03-23T10:31:12;0.10;;;0.10;;
12699;SDS011;6414;49.570;6.060;2024-03-23T10:33:58;0.23;;;0.23;;
12699;SDS011;6414;49.570;6.060;2024-03-23T10:36:44;1.07;;;0.20;;
12699;SDS011;6414;49.570;6.060;2024-03-23T10:39:34;0.20;;;0.20;;
12699;SDS011;6414;49.570;6.060;2024-03-23T10:42:23;0.03;;;0.03;;
12699;SDS011;6414;49.570;6.060;2024-03-23T10:45:09;0.20;;;0.10;;
12699;SDS011;6414;49.570;6.060;2024-03-23T10:47:56;0.30;;;0.10;;
12699;SDS011;6414;49.570;6.060;2024-03-23T10:50:42;0.20;;;0.20;;
12699;SDS011;6414;49.570;6.060;2024-03-23T10:53:28;0.40;;;0.40;;
12699;SDS011;6414;49.570;6.060;2024-03-23T10:56:14;0.75;;;0.60;;
12699;SDS011;6414;49.570;6.060;2024-03-23T10:59:01;2.10;;;0.40;;
12699;SDS011;6414;49.570;6.060;2024-03-23T11:01:54;0.23;;;0.23;;
12699;SDS011;6414;49.570;6.060;2024-03-23T11:04:39;0.20;;;0.20;;
12699;SDS011;6414;49.570;6.060;2024-03-23T11:07:29;1.60;;;0.77;;
12699;SDS011;6414;49.570;6.060;2024-03-23T11:10:36;0.55;;;0.52;;
12699;SDS011;6414;49.570;6.060;2024-03-23T11:13:23;1.33;;;0.73;;
12699;SDS011;6414;49.570;6.060;2024-03-23T11:16:14;0.20;;;0.20;;
12699;SDS011;6414;49.570;6.060;2024-03-23T11:22:11;0.10;;;0.10;;
12699;SDS011;6414;49.570;6.060;2024-03-23T11:24:57;1.20;;;0.40;;
12699;SDS011;6414;49.570;6.060;2024-03-23T11:27:45;0.50;;;0.50;;
12699;SDS011;6414;49.570;6.060;2024-03-23T11:30:31;0.13;;;0.13;;
12699;SDS011;6414;49.570;6.060;2024-03-23T11:33:18;0.33;;;0.30;;
12699;SDS011;6414;49.570;6.060;2024-03-23T11:36:05;0.57;;;0.27;;
12699;SDS011;6414;49.570;6.060;2024-03-23T11:38:52;0.20;;;0.20;;
12699;SDS011;6414;49.570;6.060;2024-03-23T11:41:56;0.23;;;0.20;;
12699;SDS011;6414;49.570;6.060;2024-03-23T11:44:42;0.07;;;0.07;;
12699;SDS011;6414;49.570;6.060;2024-03-23T11:47:28;0.10;;;0.10;;
12699;SDS011;6414;49.570;6.060;2024-03-23T11:50:24;0.20;;;0.10;;
12699;SDS011;6414;49.570;6.060;2024-03-23T11:55:57;0.00;;;0.00;;
12699;SDS011;6414;49.570;6.060;2024-03-23T11:58:42;0.40;;;0.20;;
12699;SDS011;6414;49.570;6.060;2024-03-23T12:01:29;0.73;;;0.50;;
12699;SDS011;6414;49.570;6.060;2024-03-23T12:04:24;0.10;;;0.10;;
12699;SDS011;6414;49.570;6.060;2024-03-23T12:10:02;0.20;;;0.20;;
12699;SDS011;6414;49.570;6.060;2024-03-23T12:13:01;0.23;;;0.23;;
12699;SDS011;6414;49.570;6.060;2024-03-23T12:15:49;0.07;;;0.07;;
12699;SDS011;6414;49.570;6.060;2024-03-23T12:18:32;0.90;;;0.47;;
12699;SDS011;6414;49.570;6.060;2024-03-23T12:21:19;0.03;;;0.03;;
12699;SDS011;6414;49.570;6.060;2024-03-23T12:24:05;1.27;;;0.30;;
12699;SDS011;6414;49.570;6.060;2024-03-23T12:26:52;0.00;;;0.00;;
12699;SDS011;6414;49.570;6.060;2024-03-23T12:29:38;0.43;;;0.43;;
12699;SDS011;6414;49.570;6.060;2024-03-23T12:32:25;0.30;;;0.30;;
12699;SDS011;6414;49.570;6.060;2024-03-23T12:35:11;0.55;;;0.50;;
12699;SDS011;6414;49.570;6.060;2024-03-23T12:37:58;0.30;;;0.10;;
12699;SDS011;6414;49.570;6.060;2024-03-23T12:40:48;0.00;;;0.00;;
12699;SDS011;6414;49.570;6.060;2024-03-23T12:43:35;0.20;;;0.20;;
12699;SDS011;6414;49.570;6.060;2024-03-23T12:46:21;0.20;;;0.20;;
12699;SDS011;6414;49.570;6.060;2024-03-23T12:49:08;0.27;;;0.10;;
12699;SDS011;6414;49.570;6.060;2024-03-23T12:51:55;0.10;;;0.10;;
12699;SDS011;6414;49.570;6.060;2024-03-23T12:54:40;2.73;;;0.63;;
12699;SDS011;6414;49.570;6.060;2024-03-23T12:57:27;1.60;;;0.40;;
12699;SDS011;6414;49.570;6.060;2024-03-23T13:00:13;0.90;;;0.30;;
12699;SDS011;6414;49.570;6.060;2024-03-23T13:02:59;0.00;;;0.00;;
12699;SDS011;6414;49.570;6.060;2024-03-23T13:05:51;0.00;;;0.00;;
12699;SDS011;6414;49.570;6.060;2024-03-23T13:08:31;0.00;;;0.00;;
12699;SDS011;6414;49.570;6.060;2024-03-23T13:11:19;0.00;;;0.00;;
12699;SDS011;6414;49.570;6.060;2024-03-23T13:14:05;0.00;;;0.00;;
12699;SDS011;6414;49.570;6.060;2024-03-23T13:16:51;0.10;;;0.10;;
12699;SDS011;6414;49.570;6.060;2024-03-23T13:19:37;0.00;;;0.00;;
12699;SDS011;6414;49.570;6.060;2024-03-23T13:22:24;2.00;;;0.37;;
12699;SDS011;6414;49.570;6.060;2024-03-23T13:25:10;0.57;;;0.47;;
12699;SDS011;6414;49.570;6.060;2024-03-23T13:27:57;1.60;;;0.88;;
12699;SDS011;6414;49.570;6.060;2024-03-23T13:30:50;0.00;;;0.00;;
12699;SDS011;6414;49.570;6.060;2024-03-23T13:33:36;0.27;;;0.27;;
12699;SDS011;6414;49.570;6.060;2024-03-23T13:36:22;0.00;;;0.00;;
12699;SDS011;6414;49.570;6.060;2024-03-23T13:39:09;0.60;;;0.35;;
12699;SDS011;6414;49.570;6.060;2024-03-23T13:41:59;0.93;;;0.23;;
12699;SDS011;6414;49.570;6.060;2024-03-23T13:44:45;1.12;;;0.30;;
12699;SDS011;6414;49.570;6.060;2024-03-23T13:47:31;2.83;;;0.30;;
12699;SDS011;6414;49.570;6.060;2024-03-23T13:50:18;0.20;;;0.20;;
12699;SDS011;6414;49.570;6.060;2024-03-23T13:53:04;0.40;;;0.40;;
12699;SDS011;6414;49.570;6.060;2024-03-23T13:55:51;0.20;;;0.20;;
12699;SDS011;6414;49.570;6.060;2024-03-23T13:58:37;0.00;;;0.00;;
12699;SDS011;6414;49.570;6.060;2024-03-23T14:01:25;0.40;;;0.20;;
12699;SDS011;6414;49.570;6.060;2024-03-23T14:04:12;0.00;;;0.00;;
12699;SDS011;6414;49.570;6.060;2024-03-23T14:06:57;0.00;;;0.00;;
12699;SDS011;6414;49.570;6.060;2024-03-23T14:09:43;0.00;;;0.00;;
12699;SDS011;6414;49.570;6.060;2024-03-23T14:12:29;0.00;;;0.00;;
12699;SDS011;6414;49.570;6.060;2024-03-23T14:15:15;0.73;;;0.07;;
12699;SDS011;6414;49.570;6.060;2024-03-23T14:18:01;0.10;;;0.10;;
12699;SDS011;6414;49.570;6.060;2024-03-23T14:20:47;0.30;;;0.30;;
12699;SDS011;6414;49.570;6.060;2024-03-23T14:23:33;0.13;;;0.13;;
12699;SDS011;6414;49.570;6.060;2024-03-23T14:26:20;0.00;;;0.00;;
12699;SDS011;6414;49.570;6.060;2024-03-23T14:29:06;0.20;;;0.03;;
12699;SDS011;6414;49.570;6.060;2024-03-23T14:31:51;0.60;;;0.10;;
12699;SDS011;6414;49.570;6.060;2024-03-23T14:34:38;0.10;;;0.10;;
12699;SDS011;6414;49.570;6.060;2024-03-23T14:37:24;1.30;;;0.30;;
12699;SDS011;6414;49.570;6.060;2024-03-23T14:40:10;0.00;;;0.00;;
12699;SDS011;6414;49.570;6.060;2024-03-23T14:42:57;0.07;;;0.07;;
12699;SDS011;6414;49.570;6.060;2024-03-23T14:48:58;0.10;;;0.10;;
12699;SDS011;6414;49.570;6.060;2024-03-23T14:51:44;0.00;;;0.00;;
12699;SDS011;6414;49.570;6.060;2024-03-23T14:54:29;0.17;;;0.17;;
12699;SDS011;6414;49.570;6.060;2024-03-23T14:57:15;0.00;;;0.00;;
12699;SDS011;6414;49.570;6.060;2024-03-23T15:00:03;0.27;;;0.27;;
12699;SDS011;6414;49.570;6.060;2024-03-23T15:02:48;0.00;;;0.00;;
12699;SDS011;6414;49.570;6.060;2024-03-23T15:05:34;0.30;;;0.27;;
12699;SDS011;6414;49.570;6.060;2024-03-23T15:08:20;0.00;;;0.00;;
12699;SDS011;6414;49.570;6.060;2024-03-23T15:11:06;0.40;;;0.30;;
12699;SDS011;6414;49.570;6.060;2024-03-23T15:13:52;0.10;;;0.10;;
12699;SDS011;6414;49.570;6.060;2024-03-23T15:16:38;0.20;;;0.20;;
12699;SDS011;6414;49.570;6.060;2024-03-23T15:19:24;0.33;;;0.13;;
12699;SDS011;6414;49.570;6.060;2024-03-23T15:22:10;0.57;;;0.52;;
12699;SDS011;6414;49.570;6.060;2024-03-23T15:24:56;0.52;;;0.50;;
12699;SDS011;6414;49.570;6.060;2024-03-23T15:27:42;0.10;;;0.10;;
12699;SDS011;6414;49.570;6.060;2024-03-23T15:30:28;5.73;;;0.20;;
12699;SDS011;6414;49.570;6.060;2024-03-23T15:33:14;0.00;;;0.00;;
12699;SDS011;6414;49.570;6.060;2024-03-23T15:36:02;0.07;;;0.07;;
12699;SDS011;6414;49.570;6.060;2024-03-23T15:38:50;0.00;;;0.00;;
12699;SDS011;6414;49.570;6.060;2024-03-23T15:41:36;0.47;;;0.30;;
12699;SDS011;6414;49.570;6.060;2024-03-23T15:44:23;0.17;;;0.17;;
12699;SDS011;6414;49.570;6.060;2024-03-23T15:47:09;0.00;;;0.00;;
12699;SDS011;6414;49.570;6.060;2024-03-23T15:49:55;0.00;;;0.00;;
12699;SDS011;6414;49.570;6.060;2024-03-23T15:52:42;0.00;;;0.00;;
12699;SDS011;6414;49.570;6.060;2024-03-23T15:55:29;0.03;;;0.03;;
12699;SDS011;6414;49.570;6.060;2024-03-23T15:58:16;0.00;;;0.00;;
12699;SDS011;6414;49.570;6.060;2024-03-23T16:01:02;0.00;;;0.00;;
12699;SDS011;6414;49.570;6.060;2024-03-23T16:03:50;0.00;;;0.00;;
12699;SDS011;6414;49.570;6.060;2024-03-23T16:06:36;0.10;;;0.10;;
12699;SDS011;6414;49.570;6.060;2024-03-23T16:09:23;0.00;;;0.00;;
12699;SDS011;6414;49.570;6.060;2024-03-23T16:12:09;0.00;;;0.00;;
12699;SDS011;6414;49.570;6.060;2024-03-23T16:14:56;0.53;;;0.53;;
12699;SDS011;6414;49.570;6.060;2024-03-23T16:17:43;0.00;;;0.00;;
12699;SDS011;6414;49.570;6.060;2024-03-23T16:20:29;0.10;;;0.10;;
12699;SDS011;6414;49.570;6.060;2024-03-23T16:23:15;0.82;;;0.40;;
12699;SDS011;6414;49.570;6.060;2024-03-23T16:26:01;0.00;;;0.00;;
12699;SDS011;6414;49.570;6.060;2024-03-23T16:28:47;0.60;;;0.40;;
12699;SDS011;6414;49.570;6.060;2024-03-23T16:31:33;0.10;;;0.10;;
12699;SDS011;6414;49.570;6.060;2024-03-23T16:34:20;0.40;;;0.40;;
12699;SDS011;6414;49.570;6.060;2024-03-23T16:37:06;0.13;;;0.13;;
12699;SDS011;6414;49.570;6.060;2024-03-23T16:39:52;0.10;;;0.10;;
12699;SDS011;6414;49.570;6.060;2024-03-23T16:42:38;0.00;;;0.00;;
12699;SDS011;6414;49.570;6.060;2024-03-23T16:45:24;2.47;;;0.50;;
12699;SDS011;6414;49.570;6.060;2024-03-23T16:48:10;0.10;;;0.10;;
12699;SDS011;6414;49.570;6.060;2024-03-23T16:50:56;2.28;;;0.57;;
12699;SDS011;6414;49.570;6.060;2024-03-23T16:53:43;2.72;;;0.73;;
12699;SDS011;6414;49.570;6.060;2024-03-23T16:56:29;0.20;;;0.20;;
12699;SDS011;6414;49.570;6.060;2024-03-23T16:59:15;0.10;;;0.10;;
12699;SDS011;6414;49.570;6.060;2024-03-23T17:02:01;0.00;;;0.00;;
12699;SDS011;6414;49.570;6.060;2024-03-23T17:04:47;0.00;;;0.00;;
12699;SDS011;6414;49.570;6.060;2024-03-23T17:07:33;0.00;;;0.00;;
12699;SDS011;6414;49.570;6.060;2024-03-23T17:10:19;0.20;;;0.20;;
12699;SDS011;6414;49.570;6.060;2024-03-23T17:13:05;4.73;;;0.33;;
12699;SDS011;6414;49.570;6.060;2024-03-23T17:15:51;0.13;;;0.13;;
12699;SDS011;6414;49.570;6.060;2024-03-23T17:18:39;0.43;;;0.30;;
12699;SDS011;6414;49.570;6.060;2024-03-23T17:21:25;0.10;;;0.10;;
12699;SDS011;6414;49.570;6.060;2024-03-23T17:24:12;0.40;;;0.40;;
12699;SDS011;6414;49.570;6.060;2024-03-23T17:26:58;0.73;;;0.20;;
12699;SDS011;6414;49.570;6.060;2024-03-23T17:29:44;0.77;;;0.70;;
12699;SDS011;6414;49.570;6.060;2024-03-23T17:32:30;0.70;;;0.50;;
12699;SDS011;6414;49.570;6.060;2024-03-23T17:35:17;3.60;;;0.40;;
12699;SDS011;6414;49.570;6.060;2024-03-23T17:38:03;0.10;;;0.10;;
12699;SDS011;6414;49.570;6.060;2024-03-23T17:40:49;0.17;;;0.17;;
12699;SDS011;6414;49.570;6.060;2024-03-23T17:43:35;0.32;;;0.32;;
12699;SDS011;6414;49.570;6.060;2024-03-23T17:46:22;0.30;;;0.30;;
12699;SDS011;6414;49.570;6.060;2024-03-23T17:49:08;0.10;;;0.10;;
12699;SDS011;6414;49.570;6.060;2024-03-23T17:51:57;0.53;;;0.20;;
12699;SDS011;6414;49.570;6.060;2024-03-23T17:54:41;0.03;;;0.03;;
12699;SDS011;6414;49.570;6.060;2024-03-23T17:57:27;0.10;;;0.10;;
12699;SDS011;6414;49.570;6.060;2024-03-23T18:00:12;0.53;;;0.40;;
12699;SDS011;6414;49.570;6.060;2024-03-23T18:02:58;1.03;;;0.93;;
12699;SDS011;6414;49.570;6.060;2024-03-23T18:05:44;1.00;;;0.40;;
12699;SDS011;6414;49.570;6.060;2024-03-23T18:08:30;1.07;;;0.50;;
12699;SDS011;6414;49.570;6.060;2024-03-23T18:11:16;0.13;;;0.13;;
12699;SDS011;6414;49.570;6.060;2024-03-23T18:14:03;0.40;;;0.40;;